Island Viking — WDG5991 — position and weather

sailwx.info

Track history (hours):
 
Tides and Currents Weather Stations Pressure Air Temp Water Temp Dewpoint Dewpoint Depression Visibility Wind Speed Wind Dir Waves Ship Positions

Island Viking

Owner: Island Tug and Barge, Seattle, WA. More information available from US FCC via Universal Licensing System and Coast Guard Vessel Documentation Center.

Last reported at 2018-Jun-18 20:27 UTC. Time now 2018-Jun-21 06:52 UTC.
Position N 45°37' W 122°00'.

Length 35 m; draft 4 m.

Type: Tow > 200 m length. MMSI: 368637000.

Date/timePositionNaut miles runAvg speedWind from/ knotsBaromVisibWave heightAir tempDewpointWater temp
2018-Jun-18 20:27N 45°37' W 122°00'2 3.3
2018-Jun-18 19:58N 45°37' W 122°02'3 6.8
2018-Jun-18 19:29N 45°35' W 122°07'2 4.4
2018-Jun-18 19:00N 45°35' W 122°10'0 0.4
2018-Jun-18 18:30N 45°35' W 122°09'1 2.3
2018-Jun-18 18:00N 45°35' W 122°11'3 6.6
2018-Jun-18 17:30N 45°33' W 122°15'3 6.3
2018-Jun-18 17:00N 45°33' W 122°20'3 5.5
2018-Jun-18 16:28N 45°34' W 122°23'3 5.8
2018-Jun-18 16:00N 45°34' W 122°27'3 6.1
2018-Jun-18 15:30N 45°35' W 122°31'3 6.0
2018-Jun-18 14:59N 45°36' W 122°35'3 6.3
2018-Jun-18 14:30N 45°37' W 122°40'3 6.6
2018-Jun-18 14:00N 45°39' W 122°44'1 1.9
2018-Jun-18 13:31N 45°39' W 122°45'0 0.1
2018-Jun-18 13:01N 45°39' W 122°45'0 0.1
2018-Jun-18 12:29N 45°39' W 122°45'0 0.1
2018-Jun-18 12:00N 45°39' W 122°45'0 0.1
2018-Jun-18 11:30N 45°39' W 122°45'0 0.0
2018-Jun-18 11:00N 45°39' W 122°45'0 0.0
2018-Jun-18 10:30N 45°39' W 122°45'0 0.0
2018-Jun-18 10:00N 45°39' W 122°45'0 0.0
2018-Jun-18 09:29N 45°39' W 122°45'0 0.0
2018-Jun-18 09:00N 45°39' W 122°45'0 0.0
2018-Jun-18 08:30N 45°39' W 122°45'0 0.0
2018-Jun-18 08:00N 45°39' W 122°45'0 0.0
2018-Jun-18 07:30N 45°39' W 122°45'0 0.0
2018-Jun-18 06:59N 45°39' W 122°45'0 0.0
2018-Jun-18 06:28N 45°39' W 122°45'0 0.1
2018-Jun-18 06:00N 45°39' W 122°45'0 0.0
2018-Jun-18 05:30N 45°39' W 122°45'0 0.1
2018-Jun-18 05:00N 45°39' W 122°45'0 0.1
2018-Jun-18 04:30N 45°39' W 122°45'0 0.1
2018-Jun-18 04:00N 45°39' W 122°45'0 0.1
2018-Jun-18 03:30N 45°39' W 122°45'0 0.1
2018-Jun-18 03:00N 45°39' W 122°45'0 0.0
2018-Jun-18 02:05N 45°39' W 122°45'0 0.5
2018-Jun-18 02:00N 45°39' W 122°45'0 0.0
2018-Jun-18 01:30N 45°39' W 122°45'0 0.0
2018-Jun-18 01:00N 45°39' W 122°45'0 0.0
2018-Jun-18 00:30N 45°39' W 122°45'0 0.0
2018-Jun-18 00:00N 45°39' W 122°45'0 0.0
2018-Jun-17 23:30N 45°39' W 122°45'0 0.1
2018-Jun-17 22:47N 45°39' W 122°45'0 0.1
2018-Jun-17 22:30N 45°39' W 122°45'0 0.1
2018-Jun-17 21:59N 45°39' W 122°45'0 0.0
2018-Jun-17 21:30N 45°39' W 122°45'2 4.1
2018-Jun-17 20:57N 45°41' W 122°46'3 4.9
2018-Jun-17 20:23N 45°44' W 122°46'2 5.2
2018-Jun-17 20:00N 45°46' W 122°46'2 5.0
2018-Jun-17 19:30N 45°48' W 122°47'2 4.7
2018-Jun-17 19:00N 45°50' W 122°47'2 4.7
2018-Jun-17 18:30N 45°53' W 122°48'2 4.8
2018-Jun-17 18:00N 45°55' W 122°49'2 4.8
2018-Jun-17 17:30N 45°57' W 122°49'3 5.0
2018-Jun-17 17:00N 45°59' W 122°51'3 5.2
2018-Jun-17 16:30N 46°02' W 122°53'3 5.1
2018-Jun-17 15:56N 46°04' W 122°54'2 5.3
2018-Jun-17 15:29N 46°06' W 122°56'3 5.6
2018-Jun-17 15:00N 46°07' W 122°60'3 5.7
2018-Jun-17 14:31N 46°09' W 123°03'3 5.9
2018-Jun-17 14:00N 46°11' W 123°06'3 6.0
2018-Jun-17 13:30N 46°11' W 123°11'3 6.6
2018-Jun-17 13:00N 46°09' W 123°15'3 6.8
2018-Jun-17 12:31N 46°09' W 123°20'3 6.7
2018-Jun-17 12:00N 46°10' W 123°24'3 6.7
2018-Jun-17 11:30N 46°13' W 123°25'4 7.2
2018-Jun-17 11:00N 46°16' W 123°28'4 7.4
2018-Jun-17 10:30N 46°15' W 123°33'5 7.1
2018-Jun-17 09:44N 46°15' W 123°41'1 2.3
2018-Jun-17 09:30N 46°15' W 123°42'0 1.0
2018-Jun-17 09:00N 46°15' W 123°41'3 5.1
2018-Jun-17 08:30N 46°14' W 123°44'4 7.0
2018-Jun-17 08:00N 46°12' W 123°49'4 7.3
2018-Jun-17 07:31N 46°11' W 123°54'4 7.1
2018-Jun-17 06:59N 46°14' W 123°58'3 6.3
2018-Jun-17 06:30N 46°15' W 124°02'2 4.7
2018-Jun-17 06:00N 46°15' W 124°05'2 3.8
2018-Jun-17 05:30N 46°14' W 124°07'2 3.7
2018-Jun-17 05:00N 46°13' W 124°10'2 3.6
2018-Jun-17 04:30N 46°13' W 124°12'2 4.2
2018-Jun-17 04:01N 46°13' W 124°15'3 5.0
2018-Jun-17 03:31N 46°15' W 124°18'3 5.5
2018-Jun-17 03:01N 46°17' W 124°19'3 6.3
2018-Jun-17 02:30N 46°20' W 124°20'4 7.8
2018-Jun-17 01:58N 46°25' W 124°21'4 7.6
2018-Jun-17 01:29N 46°28' W 124°22'4 7.8
2018-Jun-17 01:00N 46°32' W 124°23'4 7.9
2018-Jun-17 00:30N 46°36' W 124°24'4 8.2
2018-Jun-17 00:00N 46°40' W 124°25'4 8.0
2018-Jun-16 23:30N 46°44' W 124°27'4 7.7
2018-Jun-16 23:00N 46°47' W 124°28'4 7.5
2018-Jun-16 22:30N 46°51' W 124°29'4 7.4
2018-Jun-16 22:00N 46°55' W 124°30'4 7.5
2018-Jun-16 21:29N 46°58' W 124°31'84 7.4
2018-Jun-16 10:08N 48°21' W 124°52'1 4.4
2018-Jun-16 09:57N 48°22' W 124°51'2 4.3
2018-Jun-16 09:23N 48°24' W 124°49'2 4.5
2018-Jun-16 09:00N 48°25' W 124°48'2 3.9
2018-Jun-16 08:27N 48°26' W 124°45'2 4.2
2018-Jun-16 08:00N 48°27' W 124°42'2 4.2
2018-Jun-16 07:30N 48°26' W 124°39'2 4.9
2018-Jun-16 07:00N 48°25' W 124°36'3 5.8
2018-Jun-16 06:30N 48°23' W 124°32'4 7.1
2018-Jun-16 06:00N 48°22' W 124°27'4 7.5
2018-Jun-16 05:29N 48°20' W 124°22'3 6.4
2018-Jun-16 05:00N 48°19' W 124°18'3 6.0
2018-Jun-16 04:30N 48°17' W 124°14'3 5.8
2018-Jun-16 04:01N 48°16' W 124°10'3 5.2
2018-Jun-16 03:30N 48°15' W 124°07'2 3.8
2018-Jun-16 03:00N 48°14' W 124°04'2 2.6
2018-Jun-16 02:24N 48°13' W 124°02'1 2.0
2018-Jun-16 02:00N 48°13' W 124°01'3 3.0
2018-Jun-16 01:07N 48°14' W 124°04'2 4.7
2018-Jun-16 00:39N 48°15' W 124°07'1 4.9
2018-Jun-16 00:30N 48°16' W 124°08'1 2.3
2018-Jun-16 00:00N 48°16' W 124°10'2 3.2
2018-Jun-15 23:31N 48°15' W 124°08'2 3.3
2018-Jun-15 23:00N 48°14' W 124°05'3 3.3
2018-Jun-15 22:08N 48°13' W 124°01'4 0.3
2018-Jun-15 04:52N 48°15' W 124°07'2 5.2
2018-Jun-15 04:24N 48°16' W 124°10'2 5.3
2018-Jun-15 03:59N 48°18' W 124°13'3 5.4
2018-Jun-15 03:28N 48°19' W 124°17'3 5.4
2018-Jun-15 03:00N 48°20' W 124°20'3 5.3
2018-Jun-15 02:31N 48°21' W 124°24'3 5.6
2018-Jun-15 02:00N 48°22' W 124°28'3 5.5
2018-Jun-15 01:30N 48°23' W 124°32'3 5.9
2018-Jun-15 01:00N 48°24' W 124°36'3 5.8
2018-Jun-15 00:30N 48°25' W 124°40'3 6.3
2018-Jun-15 00:00N 48°26' W 124°44'5 8.4
2018-Jun-14 23:24N 48°23' W 124°50'4 9.0
2018-Jun-14 23:00N 48°20' W 124°53'5 9.1
2018-Jun-14 22:28N 48°16' W 124°57'75 7.9
2018-Jun-14 12:54N 47°02' W 124°33'3 7.7
2018-Jun-14 12:30N 46°59' W 124°32'4 7.7
2018-Jun-14 12:00N 46°56' W 124°30'4 8.1
2018-Jun-14 11:31N 46°52' W 124°29'4 7.8
2018-Jun-14 11:00N 46°48' W 124°28'4 7.5
2018-Jun-14 10:30N 46°44' W 124°27'4 7.2
2018-Jun-14 10:00N 46°41' W 124°26'4 7.1
2018-Jun-14 09:30N 46°37' W 124°25'3 7.0
2018-Jun-14 09:00N 46°34' W 124°24'3 7.0
2018-Jun-14 08:30N 46°31' W 124°23'3 6.9
2018-Jun-14 08:01N 46°27' W 124°22'4 7.2
2018-Jun-14 07:30N 46°24' W 124°21'4 7.1
2018-Jun-14 06:59N 46°20' W 124°20'4 8.0
2018-Jun-14 06:30N 46°16' W 124°18'3 6.9
2018-Jun-14 06:00N 46°14' W 124°15'4 6.0
2018-Jun-14 05:22N 46°13' W 124°09'2 6.3
2018-Jun-14 05:01N 46°15' W 124°06'3 5.9
2018-Jun-14 04:31N 46°15' W 124°02'4 7.5
2018-Jun-14 04:00N 46°13' W 123°58'6 8.6
2018-Jun-14 03:19N 46°12' W 123°49'3 9.8
2018-Jun-14 03:00N 46°13' W 123°46'510.3
2018-Jun-14 02:30N 46°16' W 123°39'510.5
2018-Jun-14 02:01N 46°16' W 123°31'5 8.9
2018-Jun-14 01:30N 46°14' W 123°26'510.0
2018-Jun-14 01:00N 46°09' W 123°23'5 9.9
2018-Jun-14 00:30N 46°09' W 123°16'510.3
2018-Jun-14 00:00N 46°11' W 123°10'5 9.3
2018-Jun-13 23:30N 46°09' W 123°03'5 9.5
2018-Jun-13 23:00N 46°06' W 122°58'5 9.3
2018-Jun-13 22:30N 46°04' W 122°53'5 9.3
2018-Jun-13 22:00N 45°59' W 122°51'510.0
2018-Jun-13 21:30N 45°54' W 122°48'510.4
2018-Jun-13 21:00N 45°49' W 122°48'510.4
2018-Jun-13 20:30N 45°44' W 122°46'510.0
2018-Jun-13 20:00N 45°39' W 122°46'1 1.1
2018-Jun-13 19:30N 45°39' W 122°45'0 0.0
2018-Jun-13 19:00N 45°39' W 122°45'0 0.0
2018-Jun-13 18:30N 45°39' W 122°45'0 0.1
2018-Jun-13 18:00N 45°39' W 122°45'0 0.1
2018-Jun-13 17:30N 45°39' W 122°45'2 4.0
2018-Jun-13 17:00N 45°38' W 122°42'510.4
2018-Jun-13 16:30N 45°36' W 122°36'611.6
2018-Jun-13 15:59N 45°34' W 122°27'510.2
2018-Jun-13 15:30N 45°34' W 122°21'5 9.6
2018-Jun-13 15:00N 45°33' W 122°14'4 9.1
2018-Jun-13 14:30N 45°35' W 122°08'  
2018-Jun-10 18:27N 45°37' W 122°01'2 4.3
2018-Jun-10 18:00N 45°36' W 122°03'3 6.5
2018-Jun-10 17:30N 45°35' W 122°08'3 6.4
2018-Jun-10 16:59N 45°34' W 122°12'3 6.3
2018-Jun-10 16:30N 45°33' W 122°16'3 6.0
2018-Jun-10 15:56N 45°34' W 122°21'2 4.7
2018-Jun-10 15:28N 45°34' W 122°24'3 5.3
2018-Jun-10 14:59N 45°34' W 122°27'6 5.9
2018-Jun-10 14:01N 45°36' W 122°35'3 5.9
2018-Jun-10 13:31N 45°37' W 122°39'3 6.1
2018-Jun-10 13:00N 45°38' W 122°43'2 3.0
2018-Jun-10 12:30N 45°39' W 122°45'0 0.0
2018-Jun-10 12:00N 45°39' W 122°45'0 0.0
2018-Jun-10 11:30N 45°39' W 122°45'0 0.0
2018-Jun-10 11:01N 45°39' W 122°45'0 0.0
2018-Jun-10 10:30N 45°39' W 122°45'0 0.0
2018-Jun-10 10:00N 45°39' W 122°45'0 0.0
2018-Jun-10 09:30N 45°39' W 122°45'0 0.0
2018-Jun-10 09:01N 45°39' W 122°45'0 0.0
2018-Jun-10 08:31N 45°39' W 122°45'0 0.0
2018-Jun-10 08:01N 45°39' W 122°45'0 0.0
2018-Jun-10 07:31N 45°39' W 122°45'0 0.0
2018-Jun-10 07:00N 45°39' W 122°45'0 0.0
2018-Jun-10 06:30N 45°39' W 122°45'0 0.0
2018-Jun-10 06:00N 45°39' W 122°45'0 0.0
2018-Jun-10 05:31N 45°39' W 122°45'0 0.0
2018-Jun-10 05:01N 45°39' W 122°45'0 0.0
2018-Jun-10 04:30N 45°39' W 122°45'0 0.0
2018-Jun-10 04:01N 45°39' W 122°45'0 0.0
2018-Jun-10 03:31N 45°39' W 122°45'0 0.0
2018-Jun-10 03:01N 45°39' W 122°45'0 0.0
2018-Jun-10 02:30N 45°39' W 122°45'0 0.0
2018-Jun-10 02:01N 45°39' W 122°45'0 0.0
2018-Jun-10 01:30N 45°39' W 122°45'0 0.0
2018-Jun-10 01:01N 45°39' W 122°45'0 0.0
2018-Jun-10 00:31N 45°39' W 122°45'0 0.0
2018-Jun-10 00:01N 45°39' W 122°45'0 0.0
2018-Jun-09 23:31N 45°39' W 122°45'0 0.0
2018-Jun-09 23:01N 45°39' W 122°45'0 0.0
2018-Jun-09 22:31N 45°39' W 122°45'0 0.1
2018-Jun-09 22:01N 45°39' W 122°45'0 0.0
2018-Jun-09 21:30N 45°39' W 122°45'0 0.1
2018-Jun-09 21:00N 45°39' W 122°45'0 0.0
2018-Jun-09 20:30N 45°39' W 122°45'0 0.0
2018-Jun-09 20:00N 45°39' W 122°45'0 0.0
2018-Jun-09 19:31N 45°39' W 122°45'0 0.0
2018-Jun-09 19:01N 45°39' W 122°45'0 0.0
2018-Jun-09 18:30N 45°39' W 122°45'0 0.0
2018-Jun-09 18:00N 45°39' W 122°45'0 0.0
2018-Jun-09 17:30N 45°39' W 122°45'0 0.0
2018-Jun-09 17:00N 45°39' W 122°45'2 3.1
2018-Jun-09 16:30N 45°40' W 122°46'2 4.7
2018-Jun-09 16:00N 45°43' W 122°46'3 2.6
2018-Jun-09 15:00N 45°45' W 122°46'2 4.9
2018-Jun-09 14:30N 45°48' W 122°47'3 4.6
2018-Jun-09 13:48N 45°51' W 122°47'1 4.7
2018-Jun-09 13:29N 45°52' W 122°47'2 4.7
2018-Jun-09 13:00N 45°54' W 122°49'2 4.7
2018-Jun-09 12:30N 45°57' W 122°48'2 4.6
2018-Jun-09 12:01N 45°59' W 122°50'2 5.0
2018-Jun-09 11:31N 46°01' W 122°51'2 4.5
2018-Jun-09 11:00N 46°03' W 122°53'2 4.6
2018-Jun-09 10:30N 46°05' W 122°54'2 4.8
2018-Jun-09 10:00N 46°06' W 122°57'3 5.2
2018-Jun-09 09:30N 46°08' W 123°00'2 5.0
2018-Jun-09 09:01N 46°09' W 123°03'3 5.2
2018-Jun-09 08:30N 46°11' W 123°06'3 5.2
2018-Jun-09 08:00N 46°11' W 123°10'4 5.5
2018-Jun-09 07:18N 46°09' W 123°15'2 5.7
2018-Jun-09 06:59N 46°09' W 123°17'3 6.0
2018-Jun-09 06:31N 46°09' W 123°21'3 6.0
2018-Jun-09 06:01N 46°10' W 123°25'3 6.1
2018-Jun-09 05:30N 46°13' W 123°25'3 6.5
2018-Jun-09 05:00N 46°16' W 123°28'3 6.7
2018-Jun-09 04:31N 46°16' W 123°33'5 7.3
2018-Jun-09 03:48N 46°15' W 123°40'3 6.3
2018-Jun-09 03:17N 46°14' W 123°44'4 7.8
2018-Jun-09 02:49N 46°12' W 123°49'3 8.1
2018-Jun-09 02:30N 46°11' W 123°53'5 7.5
2018-Jun-09 01:54N 46°14' W 123°58'5 7.0
2018-Jun-09 01:10N 46°15' W 124°06'1 7.1
2018-Jun-09 01:00N 46°14' W 124°07'3 6.4
2018-Jun-09 00:31N 46°13' W 124°11'2 4.5
2018-Jun-09 00:00N 46°13' W 124°14'3 5.7
2018-Jun-08 23:31N 46°15' W 124°18'3 5.4
2018-Jun-08 23:01N 46°17' W 124°19'3 6.2
2018-Jun-08 22:31N 46°20' W 124°20'3 6.3
2018-Jun-08 22:00N 46°23' W 124°20'3 5.8
2018-Jun-08 21:31N 46°26' W 124°21'3 5.7
2018-Jun-08 21:01N 46°29' W 124°22'3 5.7
2018-Jun-08 20:31N 46°32' W 124°23'  
Track history (hours):
 
Tides and Currents Weather Stations Pressure Air Temp Water Temp Dewpoint Dewpoint Depression Visibility Wind Speed Wind Dir Waves Ship Positions

Island Viking

Owner: Island Tug and Barge, Seattle, WA. More information available from US FCC via Universal Licensing System and Coast Guard Vessel Documentation Center.

Last reported at 2018-Jun-18 20:27 UTC. Time now 2018-Jun-21 06:52 UTC.
Position N 45°37' W 122°00'.

Length 35 m; draft 4 m.

Type: Tow > 200 m length. MMSI: 368637000.

Date/timePositionNaut miles runAvg speedWind from/ knotsBaromVisibWave heightAir tempDewpointWater temp
2018-Jun-18 20:27N 45°37' W 122°00'2 3.3
2018-Jun-18 19:58N 45°37' W 122°02'3 6.8
2018-Jun-18 19:29N 45°35' W 122°07'2 4.4
2018-Jun-18 19:00N 45°35' W 122°10'0 0.4
2018-Jun-18 18:30N 45°35' W 122°09'1 2.3
2018-Jun-18 18:00N 45°35' W 122°11'3 6.6
2018-Jun-18 17:30N 45°33' W 122°15'3 6.3
2018-Jun-18 17:00N 45°33' W 122°20'3 5.5
2018-Jun-18 16:28N 45°34' W 122°23'3 5.8
2018-Jun-18 16:00N 45°34' W 122°27'3 6.1
2018-Jun-18 15:30N 45°35' W 122°31'3 6.0
2018-Jun-18 14:59N 45°36' W 122°35'3 6.3
2018-Jun-18 14:30N 45°37' W 122°40'3 6.6
2018-Jun-18 14:00N 45°39' W 122°44'1 1.9
2018-Jun-18 13:31N 45°39' W 122°45'0 0.1
2018-Jun-18 13:01N 45°39' W 122°45'0 0.1
2018-Jun-18 12:29N 45°39' W 122°45'0 0.1
2018-Jun-18 12:00N 45°39' W 122°45'0 0.1
2018-Jun-18 11:30N 45°39' W 122°45'0 0.0
2018-Jun-18 11:00N 45°39' W 122°45'0 0.0
2018-Jun-18 10:30N 45°39' W 122°45'0 0.0
2018-Jun-18 10:00N 45°39' W 122°45'0 0.0
2018-Jun-18 09:29N 45°39' W 122°45'0 0.0
2018-Jun-18 09:00N 45°39' W 122°45'0 0.0
2018-Jun-18 08:30N 45°39' W 122°45'0 0.0
2018-Jun-18 08:00N 45°39' W 122°45'0 0.0
2018-Jun-18 07:30N 45°39' W 122°45'0 0.0
2018-Jun-18 06:59N 45°39' W 122°45'0 0.0
2018-Jun-18 06:28N 45°39' W 122°45'0 0.1
2018-Jun-18 06:00N 45°39' W 122°45'0 0.0
2018-Jun-18 05:30N 45°39' W 122°45'0 0.1
2018-Jun-18 05:00N 45°39' W 122°45'0 0.1
2018-Jun-18 04:30N 45°39' W 122°45'0 0.1
2018-Jun-18 04:00N 45°39' W 122°45'0 0.1
2018-Jun-18 03:30N 45°39' W 122°45'0 0.1
2018-Jun-18 03:00N 45°39' W 122°45'0 0.0
2018-Jun-18 02:05N 45°39' W 122°45'0 0.5
2018-Jun-18 02:00N 45°39' W 122°45'0 0.0
2018-Jun-18 01:30N 45°39' W 122°45'0 0.0
2018-Jun-18 01:00N 45°39' W 122°45'0 0.0
2018-Jun-18 00:30N 45°39' W 122°45'0 0.0
2018-Jun-18 00:00N 45°39' W 122°45'0 0.0
2018-Jun-17 23:30N 45°39' W 122°45'0 0.1
2018-Jun-17 22:47N 45°39' W 122°45'0 0.1
2018-Jun-17 22:30N 45°39' W 122°45'0 0.1
2018-Jun-17 21:59N 45°39' W 122°45'0 0.0
2018-Jun-17 21:30N 45°39' W 122°45'2 4.1
2018-Jun-17 20:57N 45°41' W 122°46'3 4.9
2018-Jun-17 20:23N 45°44' W 122°46'2 5.2
2018-Jun-17 20:00N 45°46' W 122°46'2 5.0
2018-Jun-17 19:30N 45°48' W 122°47'2 4.7
2018-Jun-17 19:00N 45°50' W 122°47'2 4.7
2018-Jun-17 18:30N 45°53' W 122°48'2 4.8
2018-Jun-17 18:00N 45°55' W 122°49'2 4.8
2018-Jun-17 17:30N 45°57' W 122°49'3 5.0
2018-Jun-17 17:00N 45°59' W 122°51'3 5.2
2018-Jun-17 16:30N 46°02' W 122°53'3 5.1
2018-Jun-17 15:56N 46°04' W 122°54'2 5.3
2018-Jun-17 15:29N 46°06' W 122°56'3 5.6
2018-Jun-17 15:00N 46°07' W 122°60'3 5.7
2018-Jun-17 14:31N 46°09' W 123°03'3 5.9
2018-Jun-17 14:00N 46°11' W 123°06'3 6.0
2018-Jun-17 13:30N 46°11' W 123°11'3 6.6
2018-Jun-17 13:00N 46°09' W 123°15'3 6.8
2018-Jun-17 12:31N 46°09' W 123°20'3 6.7
2018-Jun-17 12:00N 46°10' W 123°24'3 6.7
2018-Jun-17 11:30N 46°13' W 123°25'4 7.2
2018-Jun-17 11:00N 46°16' W 123°28'4 7.4
2018-Jun-17 10:30N 46°15' W 123°33'5 7.1
2018-Jun-17 09:44N 46°15' W 123°41'1 2.3
2018-Jun-17 09:30N 46°15' W 123°42'0 1.0
2018-Jun-17 09:00N 46°15' W 123°41'3 5.1
2018-Jun-17 08:30N 46°14' W 123°44'4 7.0
2018-Jun-17 08:00N 46°12' W 123°49'4 7.3
2018-Jun-17 07:31N 46°11' W 123°54'4 7.1
2018-Jun-17 06:59N 46°14' W 123°58'3 6.3
2018-Jun-17 06:30N 46°15' W 124°02'2 4.7
2018-Jun-17 06:00N 46°15' W 124°05'2 3.8
2018-Jun-17 05:30N 46°14' W 124°07'2 3.7
2018-Jun-17 05:00N 46°13' W 124°10'2 3.6
2018-Jun-17 04:30N 46°13' W 124°12'2 4.2
2018-Jun-17 04:01N 46°13' W 124°15'3 5.0
2018-Jun-17 03:31N 46°15' W 124°18'3 5.5
2018-Jun-17 03:01N 46°17' W 124°19'3 6.3
2018-Jun-17 02:30N 46°20' W 124°20'4 7.8
2018-Jun-17 01:58N 46°25' W 124°21'4 7.6
2018-Jun-17 01:29N 46°28' W 124°22'4 7.8
2018-Jun-17 01:00N 46°32' W 124°23'4 7.9
2018-Jun-17 00:30N 46°36' W 124°24'4 8.2
2018-Jun-17 00:00N 46°40' W 124°25'4 8.0
2018-Jun-16 23:30N 46°44' W 124°27'4 7.7
2018-Jun-16 23:00N 46°47' W 124°28'4 7.5
2018-Jun-16 22:30N 46°51' W 124°29'4 7.4
2018-Jun-16 22:00N 46°55' W 124°30'4 7.5
2018-Jun-16 21:29N 46°58' W 124°31'84 7.4
2018-Jun-16 10:08N 48°21' W 124°52'1 4.4
2018-Jun-16 09:57N 48°22' W 124°51'2 4.3
2018-Jun-16 09:23N 48°24' W 124°49'2 4.5
2018-Jun-16 09:00N 48°25' W 124°48'2 3.9
2018-Jun-16 08:27N 48°26' W 124°45'2 4.2
2018-Jun-16 08:00N 48°27' W 124°42'2 4.2
2018-Jun-16 07:30N 48°26' W 124°39'2 4.9
2018-Jun-16 07:00N 48°25' W 124°36'3 5.8
2018-Jun-16 06:30N 48°23' W 124°32'4 7.1
2018-Jun-16 06:00N 48°22' W 124°27'4 7.5
2018-Jun-16 05:29N 48°20' W 124°22'3 6.4
2018-Jun-16 05:00N 48°19' W 124°18'3 6.0
2018-Jun-16 04:30N 48°17' W 124°14'3 5.8
2018-Jun-16 04:01N 48°16' W 124°10'3 5.2
2018-Jun-16 03:30N 48°15' W 124°07'2 3.8
2018-Jun-16 03:00N 48°14' W 124°04'2 2.6
2018-Jun-16 02:24N 48°13' W 124°02'1 2.0
2018-Jun-16 02:00N 48°13' W 124°01'3 3.0
2018-Jun-16 01:07N 48°14' W 124°04'2 4.7
2018-Jun-16 00:39N 48°15' W 124°07'1 4.9
2018-Jun-16 00:30N 48°16' W 124°08'1 2.3
2018-Jun-16 00:00N 48°16' W 124°10'2 3.2
2018-Jun-15 23:31N 48°15' W 124°08'2 3.3
2018-Jun-15 23:00N 48°14' W 124°05'3 3.3
2018-Jun-15 22:08N 48°13' W 124°01'4 0.3
2018-Jun-15 04:52N 48°15' W 124°07'2 5.2
2018-Jun-15 04:24N 48°16' W 124°10'2 5.3
2018-Jun-15 03:59N 48°18' W 124°13'3 5.4
2018-Jun-15 03:28N 48°19' W 124°17'3 5.4
2018-Jun-15 03:00N 48°20' W 124°20'3 5.3
2018-Jun-15 02:31N 48°21' W 124°24'3 5.6
2018-Jun-15 02:00N 48°22' W 124°28'3 5.5
2018-Jun-15 01:30N 48°23' W 124°32'3 5.9
2018-Jun-15 01:00N 48°24' W 124°36'3 5.8
2018-Jun-15 00:30N 48°25' W 124°40'3 6.3
2018-Jun-15 00:00N 48°26' W 124°44'5 8.4
2018-Jun-14 23:24N 48°23' W 124°50'4 9.0
2018-Jun-14 23:00N 48°20' W 124°53'5 9.1
2018-Jun-14 22:28N 48°16' W 124°57'75 7.9
2018-Jun-14 12:54N 47°02' W 124°33'3 7.7
2018-Jun-14 12:30N 46°59' W 124°32'4 7.7
2018-Jun-14 12:00N 46°56' W 124°30'4 8.1
2018-Jun-14 11:31N 46°52' W 124°29'4 7.8
2018-Jun-14 11:00N 46°48' W 124°28'4 7.5
2018-Jun-14 10:30N 46°44' W 124°27'4 7.2
2018-Jun-14 10:00N 46°41' W 124°26'4 7.1
2018-Jun-14 09:30N 46°37' W 124°25'3 7.0
2018-Jun-14 09:00N 46°34' W 124°24'3 7.0
2018-Jun-14 08:30N 46°31' W 124°23'3 6.9
2018-Jun-14 08:01N 46°27' W 124°22'4 7.2
2018-Jun-14 07:30N 46°24' W 124°21'4 7.1
2018-Jun-14 06:59N 46°20' W 124°20'4 8.0
2018-Jun-14 06:30N 46°16' W 124°18'3 6.9
2018-Jun-14 06:00N 46°14' W 124°15'4 6.0
2018-Jun-14 05:22N 46°13' W 124°09'2 6.3
2018-Jun-14 05:01N 46°15' W 124°06'3 5.9
2018-Jun-14 04:31N 46°15' W 124°02'4 7.5
2018-Jun-14 04:00N 46°13' W 123°58'6 8.6
2018-Jun-14 03:19N 46°12' W 123°49'3 9.8
2018-Jun-14 03:00N 46°13' W 123°46'510.3
2018-Jun-14 02:30N 46°16' W 123°39'510.5
2018-Jun-14 02:01N 46°16' W 123°31'5 8.9
2018-Jun-14 01:30N 46°14' W 123°26'510.0
2018-Jun-14 01:00N 46°09' W 123°23'5 9.9
2018-Jun-14 00:30N 46°09' W 123°16'510.3
2018-Jun-14 00:00N 46°11' W 123°10'5 9.3
2018-Jun-13 23:30N 46°09' W 123°03'5 9.5
2018-Jun-13 23:00N 46°06' W 122°58'5 9.3
2018-Jun-13 22:30N 46°04' W 122°53'5 9.3
2018-Jun-13 22:00N 45°59' W 122°51'510.0
2018-Jun-13 21:30N 45°54' W 122°48'510.4
2018-Jun-13 21:00N 45°49' W 122°48'510.4
2018-Jun-13 20:30N 45°44' W 122°46'510.0
2018-Jun-13 20:00N 45°39' W 122°46'1 1.1
2018-Jun-13 19:30N 45°39' W 122°45'0 0.0
2018-Jun-13 19:00N 45°39' W 122°45'0 0.0
2018-Jun-13 18:30N 45°39' W 122°45'0 0.1
2018-Jun-13 18:00N 45°39' W 122°45'0 0.1
2018-Jun-13 17:30N 45°39' W 122°45'2 4.0
2018-Jun-13 17:00N 45°38' W 122°42'510.4
2018-Jun-13 16:30N 45°36' W 122°36'611.6
2018-Jun-13 15:59N 45°34' W 122°27'510.2
2018-Jun-13 15:30N 45°34' W 122°21'5 9.6
2018-Jun-13 15:00N 45°33' W 122°14'4 9.1
2018-Jun-13 14:30N 45°35' W 122°08'  
2018-Jun-10 18:27N 45°37' W 122°01'2 4.3
2018-Jun-10 18:00N 45°36' W 122°03'3 6.5
2018-Jun-10 17:30N 45°35' W 122°08'3 6.4
2018-Jun-10 16:59N 45°34' W 122°12'3 6.3
2018-Jun-10 16:30N 45°33' W 122°16'3 6.0
2018-Jun-10 15:56N 45°34' W 122°21'2 4.7
2018-Jun-10 15:28N 45°34' W 122°24'3 5.3
2018-Jun-10 14:59N 45°34' W 122°27'6 5.9
2018-Jun-10 14:01N 45°36' W 122°35'3 5.9
2018-Jun-10 13:31N 45°37' W 122°39'3 6.1
2018-Jun-10 13:00N 45°38' W 122°43'2 3.0
2018-Jun-10 12:30N 45°39' W 122°45'0 0.0
2018-Jun-10 12:00N 45°39' W 122°45'0 0.0
2018-Jun-10 11:30N 45°39' W 122°45'0 0.0
2018-Jun-10 11:01N 45°39' W 122°45'0 0.0
2018-Jun-10 10:30N 45°39' W 122°45'0 0.0
2018-Jun-10 10:00N 45°39' W 122°45'0 0.0
2018-Jun-10 09:30N 45°39' W 122°45'0 0.0
2018-Jun-10 09:01N 45°39' W 122°45'0 0.0
2018-Jun-10 08:31N 45°39' W 122°45'0 0.0
2018-Jun-10 08:01N 45°39' W 122°45'0 0.0
2018-Jun-10 07:31N 45°39' W 122°45'0 0.0
2018-Jun-10 07:00N 45°39' W 122°45'0 0.0
2018-Jun-10 06:30N 45°39' W 122°45'0 0.0
2018-Jun-10 06:00N 45°39' W 122°45'0 0.0
2018-Jun-10 05:31N 45°39' W 122°45'0 0.0
2018-Jun-10 05:01N 45°39' W 122°45'0 0.0
2018-Jun-10 04:30N 45°39' W 122°45'0 0.0
2018-Jun-10 04:01N 45°39' W 122°45'0 0.0
2018-Jun-10 03:31N 45°39' W 122°45'0 0.0
2018-Jun-10 03:01N 45°39' W 122°45'0 0.0
2018-Jun-10 02:30N 45°39' W 122°45'0 0.0
2018-Jun-10 02:01N 45°39' W 122°45'0 0.0
2018-Jun-10 01:30N 45°39' W 122°45'0 0.0
2018-Jun-10 01:01N 45°39' W 122°45'0 0.0
2018-Jun-10 00:31N 45°39' W 122°45'0 0.0
2018-Jun-10 00:01N 45°39' W 122°45'0 0.0
2018-Jun-09 23:31N 45°39' W 122°45'0 0.0
2018-Jun-09 23:01N 45°39' W 122°45'0 0.0
2018-Jun-09 22:31N 45°39' W 122°45'0 0.1
2018-Jun-09 22:01N 45°39' W 122°45'0 0.0
2018-Jun-09 21:30N 45°39' W 122°45'0 0.1
2018-Jun-09 21:00N 45°39' W 122°45'0 0.0
2018-Jun-09 20:30N 45°39' W 122°45'0 0.0
2018-Jun-09 20:00N 45°39' W 122°45'0 0.0
2018-Jun-09 19:31N 45°39' W 122°45'0 0.0
2018-Jun-09 19:01N 45°39' W 122°45'0 0.0
2018-Jun-09 18:30N 45°39' W 122°45'0 0.0
2018-Jun-09 18:00N 45°39' W 122°45'0 0.0
2018-Jun-09 17:30N 45°39' W 122°45'0 0.0
2018-Jun-09 17:00N 45°39' W 122°45'2 3.1
2018-Jun-09 16:30N 45°40' W 122°46'2 4.7
2018-Jun-09 16:00N 45°43' W 122°46'3 2.6
2018-Jun-09 15:00N 45°45' W 122°46'2 4.9
2018-Jun-09 14:30N 45°48' W 122°47'3 4.6
2018-Jun-09 13:48N 45°51' W 122°47'1 4.7
2018-Jun-09 13:29N 45°52' W 122°47'2 4.7
2018-Jun-09 13:00N 45°54' W 122°49'2 4.7
2018-Jun-09 12:30N 45°57' W 122°48'2 4.6
2018-Jun-09 12:01N 45°59' W 122°50'2 5.0
2018-Jun-09 11:31N 46°01' W 122°51'2 4.5
2018-Jun-09 11:00N 46°03' W 122°53'2 4.6
2018-Jun-09 10:30N 46°05' W 122°54'2 4.8
2018-Jun-09 10:00N 46°06' W 122°57'3 5.2
2018-Jun-09 09:30N 46°08' W 123°00'2 5.0
2018-Jun-09 09:01N 46°09' W 123°03'3 5.2
2018-Jun-09 08:30N 46°11' W 123°06'3 5.2
2018-Jun-09 08:00N 46°11' W 123°10'4 5.5
2018-Jun-09 07:18N 46°09' W 123°15'2 5.7
2018-Jun-09 06:59N 46°09' W 123°17'3 6.0
2018-Jun-09 06:31N 46°09' W 123°21'3 6.0
2018-Jun-09 06:01N 46°10' W 123°25'3 6.1
2018-Jun-09 05:30N 46°13' W 123°25'3 6.5
2018-Jun-09 05:00N 46°16' W 123°28'3 6.7
2018-Jun-09 04:31N 46°16' W 123°33'5 7.3
2018-Jun-09 03:48N 46°15' W 123°40'3 6.3
2018-Jun-09 03:17N 46°14' W 123°44'4 7.8
2018-Jun-09 02:49N 46°12' W 123°49'3 8.1
2018-Jun-09 02:30N 46°11' W 123°53'5 7.5
2018-Jun-09 01:54N 46°14' W 123°58'5 7.0
2018-Jun-09 01:10N 46°15' W 124°06'1 7.1
2018-Jun-09 01:00N 46°14' W 124°07'3 6.4
2018-Jun-09 00:31N 46°13' W 124°11'2 4.5
2018-Jun-09 00:00N 46°13' W 124°14'3 5.7
2018-Jun-08 23:31N 46°15' W 124°18'3 5.4
2018-Jun-08 23:01N 46°17' W 124°19'3 6.2
2018-Jun-08 22:31N 46°20' W 124°20'3 6.3
2018-Jun-08 22:00N 46°23' W 124°20'3 5.8
2018-Jun-08 21:31N 46°26' W 124°21'3 5.7
2018-Jun-08 21:01N 46°29' W 124°22'3 5.7
2018-Jun-08 20:31N 46°32' W 124°23'  

Dump ship's entire track history